sensor_id;sensor_type;location;lat;lon;timestamp;pressure;altitude;pressure_sealevel;temperature;humidity
58785;BME280;44557;51.862;19.378;2022-09-09T00:00:37;98843.33;;;14.94;75.53
58785;BME280;44557;51.862;19.378;2022-09-09T00:02:26;98843.23;;;14.91;75.71
58785;BME280;44557;51.862;19.378;2022-09-09T00:03:48;98841.20;;;14.98;75.79
58785;BME280;44557;51.862;19.378;2022-09-09T00:05:17;98840.55;;;14.96;75.88
58785;BME280;44557;51.862;19.378;2022-09-09T00:06:45;98845.00;;;14.96;75.90
58785;BME280;44557;51.862;19.378;2022-09-09T00:07:52;98846.69;;;14.87;76.39
58785;BME280;44557;51.862;19.378;2022-09-09T00:09:14;98847.52;;;14.81;76.67
58785;BME280;44557;51.862;19.378;2022-09-09T00:10:32;98845.05;;;14.79;76.41
58785;BME280;44557;51.862;19.378;2022-09-09T00:14:47;98844.74;;;14.94;76.64
58785;BME280;44557;51.862;19.378;2022-09-09T00:16:00;98847.67;;;14.92;76.43
58785;BME280;44557;51.862;19.378;2022-09-09T00:17:12;98846.29;;;14.75;76.90
58785;BME280;44557;51.862;19.378;2022-09-09T00:21:03;98841.98;;;14.58;77.43
58785;BME280;44557;51.862;19.378;2022-09-09T00:22:21;98832.79;;;14.46;77.90
58785;BME280;44557;51.862;19.378;2022-09-09T00:23:36;98828.95;;;14.51;77.97
58785;BME280;44557;51.862;19.378;2022-09-09T00:24:51;98830.83;;;14.37;78.26
58785;BME280;44557;51.862;19.378;2022-09-09T00:27:25;98822.11;;;14.47;78.45
58785;BME280;44557;51.862;19.378;2022-09-09T00:28:35;98821.14;;;14.45;78.49
58785;BME280;44557;51.862;19.378;2022-09-09T00:29:50;98820.70;;;14.39;78.85
58785;BME280;44557;51.862;19.378;2022-09-09T00:30:56;98827.09;;;14.56;78.17
58785;BME280;44557;51.862;19.378;2022-09-09T00:32:12;98827.78;;;14.66;78.08
58785;BME280;44557;51.862;19.378;2022-09-09T00:33:18;98829.41;;;14.72;77.86
58785;BME280;44557;51.862;19.378;2022-09-09T00:34:24;98828.12;;;14.57;78.15
58785;BME280;44557;51.862;19.378;2022-09-09T00:35:32;98828.56;;;14.64;77.88
58785;BME280;44557;51.862;19.378;2022-09-09T00:36:35;98825.98;;;14.57;78.40
58785;BME280;44557;51.862;19.378;2022-09-09T00:37:39;98831.50;;;14.54;78.35
58785;BME280;44557;51.862;19.378;2022-09-09T00:38:49;98832.71;;;14.56;78.40
58785;BME280;44557;51.862;19.378;2022-09-09T00:39:57;98833.69;;;14.50;78.70
58785;BME280;44557;51.862;19.378;2022-09-09T00:41:10;98834.70;;;14.46;78.69
58785;BME280;44557;51.862;19.378;2022-09-09T00:42:25;98836.67;;;14.56;78.64
58785;BME280;44557;51.862;19.378;2022-09-09T00:43:40;98839.78;;;14.49;78.82
58785;BME280;44557;51.862;19.378;2022-09-09T00:48:47;98828.02;;;14.55;78.95
58785;BME280;44557;51.862;19.378;2022-09-09T00:54:27;98827.23;;;14.66;78.55
58785;BME280;44557;51.862;19.378;2022-09-09T00:58:20;98825.16;;;14.52;79.26
58785;BME280;44557;51.862;19.378;2022-09-09T01:00:49;98831.90;;;14.65;78.79
58785;BME280;44557;51.862;19.378;2022-09-09T01:01:53;98834.70;;;14.59;78.74
58785;BME280;44557;51.862;19.378;2022-09-09T01:03:30;98836.50;;;14.55;79.25
58785;BME280;44557;51.862;19.378;2022-09-09T01:04:36;98841.63;;;14.62;79.26
58785;BME280;44557;51.862;19.378;2022-09-09T01:06:16;98841.41;;;14.65;79.24
58785;BME280;44557;51.862;19.378;2022-09-09T01:07:22;98836.81;;;14.66;78.92
58785;BME280;44557;51.862;19.378;2022-09-09T01:09:52;98839.02;;;14.63;78.93
58785;BME280;44557;51.862;19.378;2022-09-09T01:10:56;98836.33;;;14.64;78.97
58785;BME280;44557;51.862;19.378;2022-09-09T01:13:13;98841.55;;;14.75;78.41
58785;BME280;44557;51.862;19.378;2022-09-09T01:15:32;98839.52;;;14.69;78.65
58785;BME280;44557;51.862;19.378;2022-09-09T01:16:35;98837.83;;;14.64;78.98
58785;BME280;44557;51.862;19.378;2022-09-09T01:18:03;98838.05;;;14.61;79.23
58785;BME280;44557;51.862;19.378;2022-09-09T01:19:08;98839.75;;;14.68;78.97
58785;BME280;44557;51.862;19.378;2022-09-09T01:20:23;98842.69;;;14.79;78.23
58785;BME280;44557;51.862;19.378;2022-09-09T01:21:50;98847.44;;;14.80;78.56
58785;BME280;44557;51.862;19.378;2022-09-09T01:27:00;98846.23;;;14.77;78.56
58785;BME280;44557;51.862;19.378;2022-09-09T01:28:08;98849.95;;;14.74;78.49
58785;BME280;44557;51.862;19.378;2022-09-09T01:29:13;98851.80;;;14.80;78.22
58785;BME280;44557;51.862;19.378;2022-09-09T01:30:17;98849.24;;;14.76;78.35
58785;BME280;44557;51.862;19.378;2022-09-09T01:31:24;98848.29;;;14.75;78.79
58785;BME280;44557;51.862;19.378;2022-09-09T01:32:49;98847.50;;;14.77;79.08
58785;BME280;44557;51.862;19.378;2022-09-09T01:33:51;98850.85;;;14.69;79.55
58785;BME280;44557;51.862;19.378;2022-09-09T01:34:53;98854.04;;;14.71;79.30
58785;BME280;44557;51.862;19.378;2022-09-09T01:36:06;98857.13;;;14.70;79.31
58785;BME280;44557;51.862;19.378;2022-09-09T01:37:11;98862.42;;;14.68;79.21
58785;BME280;44557;51.862;19.378;2022-09-09T01:38:14;98863.86;;;14.83;78.53
58785;BME280;44557;51.862;19.378;2022-09-09T01:39:16;98869.98;;;14.88;78.58
58785;BME280;44557;51.862;19.378;2022-09-09T01:40:18;98866.74;;;14.89;79.37
58785;BME280;44557;51.862;19.378;2022-09-09T01:41:20;98870.83;;;14.94;78.52
58785;BME280;44557;51.862;19.378;2022-09-09T01:42:22;98872.80;;;14.93;78.39
58785;BME280;44557;51.862;19.378;2022-09-09T01:43:25;98867.73;;;14.83;79.15
58785;BME280;44557;51.862;19.378;2022-09-09T01:44:28;98878.26;;;14.81;79.10
58785;BME280;44557;51.862;19.378;2022-09-09T01:45:31;98878.92;;;14.71;79.21
58785;BME280;44557;51.862;19.378;2022-09-09T01:46:33;98883.25;;;14.78;79.23
58785;BME280;44557;51.862;19.378;2022-09-09T01:47:35;98883.77;;;14.85;78.97
58785;BME280;44557;51.862;19.378;2022-09-09T01:48:37;98882.86;;;14.94;78.66
58785;BME280;44557;51.862;19.378;2022-09-09T01:49:38;98885.92;;;14.75;79.36
58785;BME280;44557;51.862;19.378;2022-09-09T01:50:40;98886.96;;;14.79;78.96
58785;BME280;44557;51.862;19.378;2022-09-09T01:51:42;98888.67;;;14.75;79.18
58785;BME280;44557;51.862;19.378;2022-09-09T01:52:47;98888.87;;;14.68;79.64
58785;BME280;44557;51.862;19.378;2022-09-09T01:53:50;98891.58;;;14.82;79.03
58785;BME280;44557;51.862;19.378;2022-09-09T01:54:52;98895.48;;;14.86;78.83
58785;BME280;44557;51.862;19.378;2022-09-09T01:57:27;98890.88;;;14.72;79.06
58785;BME280;44557;51.862;19.378;2022-09-09T01:58:52;98884.23;;;14.64;79.32
58785;BME280;44557;51.862;19.378;2022-09-09T02:00:10;98887.96;;;14.63;79.94
58785;BME280;44557;51.862;19.378;2022-09-09T02:03:10;98886.38;;;14.64;79.82
58785;BME280;44557;51.862;19.378;2022-09-09T02:04:37;98882.00;;;14.71;79.73
58785;BME280;44557;51.862;19.378;2022-09-09T02:05:41;98883.85;;;14.54;79.94
58785;BME280;44557;51.862;19.378;2022-09-09T02:06:45;98881.17;;;14.65;79.81
58785;BME280;44557;51.862;19.378;2022-09-09T02:07:57;98882.27;;;14.62;79.77
58785;BME280;44557;51.862;19.378;2022-09-09T02:09:05;98880.39;;;14.67;79.70
58785;BME280;44557;51.862;19.378;2022-09-09T02:10:35;98884.55;;;14.62;80.01
58785;BME280;44557;51.862;19.378;2022-09-09T02:11:33;98882.34;;;14.52;80.38
58785;BME280;44557;51.862;19.378;2022-09-09T02:12:36;98882.59;;;14.55;80.05
58785;BME280;44557;51.862;19.378;2022-09-09T02:13:39;98883.02;;;14.49;80.51
58785;BME280;44557;51.862;19.378;2022-09-09T02:14:47;98882.88;;;14.51;80.48
58785;BME280;44557;51.862;19.378;2022-09-09T02:17:11;98883.83;;;14.62;80.05
58785;BME280;44557;51.862;19.378;2022-09-09T02:18:18;98881.27;;;14.58;80.26
58785;BME280;44557;51.862;19.378;2022-09-09T02:19:27;98884.94;;;14.51;80.49
58785;BME280;44557;51.862;19.378;2022-09-09T02:20:31;98894.73;;;14.47;80.69
58785;BME280;44557;51.862;19.378;2022-09-09T02:21:35;98891.15;;;14.54;80.61
58785;BME280;44557;51.862;19.378;2022-09-09T02:22:41;98887.83;;;14.67;80.29
58785;BME280;44557;51.862;19.378;2022-09-09T02:23:47;98889.79;;;14.75;79.80
58785;BME280;44557;51.862;19.378;2022-09-09T02:24:56;98891.35;;;14.72;79.63
58785;BME280;44557;51.862;19.378;2022-09-09T02:26:00;98891.79;;;14.66;80.06
58785;BME280;44557;51.862;19.378;2022-09-09T02:27:05;98896.73;;;14.50;80.95
58785;BME280;44557;51.862;19.378;2022-09-09T02:28:10;98894.41;;;14.47;80.98
58785;BME280;44557;51.862;19.378;2022-09-09T02:29:21;98888.00;;;14.47;80.87
58785;BME280;44557;51.862;19.378;2022-09-09T02:30:24;98891.01;;;14.38;81.17
58785;BME280;44557;51.862;19.378;2022-09-09T02:31:26;98891.50;;;14.40;81.31
58785;BME280;44557;51.862;19.378;2022-09-09T02:32:29;98892.59;;;14.24;81.95
58785;BME280;44557;51.862;19.378;2022-09-09T02:33:43;98895.23;;;14.33;81.62
58785;BME280;44557;51.862;19.378;2022-09-09T02:34:49;98892.15;;;14.27;81.83
58785;BME280;44557;51.862;19.378;2022-09-09T02:35:54;98893.56;;;14.33;81.75
58785;BME280;44557;51.862;19.378;2022-09-09T02:36:59;98895.10;;;14.35;81.77
58785;BME280;44557;51.862;19.378;2022-09-09T02:38:05;98893.14;;;14.37;81.79
58785;BME280;44557;51.862;19.378;2022-09-09T02:39:09;98894.02;;;14.37;81.44
58785;BME280;44557;51.862;19.378;2022-09-09T02:40:13;98893.93;;;14.38;81.58
58785;BME280;44557;51.862;19.378;2022-09-09T02:41:23;98897.86;;;14.35;81.77
58785;BME280;44557;51.862;19.378;2022-09-09T02:42:25;98898.30;;;14.32;81.90
58785;BME280;44557;51.862;19.378;2022-09-09T02:43:34;98895.25;;;14.35;81.87
58785;BME280;44557;51.862;19.378;2022-09-09T02:44:36;98896.80;;;14.32;82.50
58785;BME280;44557;51.862;19.378;2022-09-09T02:46:03;98895.41;;;14.35;82.13
58785;BME280;44557;51.862;19.378;2022-09-09T02:47:25;98897.70;;;14.34;82.16
58785;BME280;44557;51.862;19.378;2022-09-09T02:48:48;98895.96;;;14.35;82.31
58785;BME280;44557;51.862;19.378;2022-09-09T02:50:31;98895.64;;;14.35;82.38
58785;BME280;44557;51.862;19.378;2022-09-09T02:53:02;98895.48;;;14.35;82.61
58785;BME280;44557;51.862;19.378;2022-09-09T02:54:23;98894.86;;;14.44;82.15
58785;BME280;44557;51.862;19.378;2022-09-09T02:56:38;98894.84;;;14.51;81.87
58785;BME280;44557;51.862;19.378;2022-09-09T02:57:41;98898.64;;;14.52;81.89
58785;BME280;44557;51.862;19.378;2022-09-09T02:58:44;98899.47;;;14.48;81.95
58785;BME280;44557;51.862;19.378;2022-09-09T02:59:48;98898.16;;;14.51;81.73
58785;BME280;44557;51.862;19.378;2022-09-09T03:00:51;98903.50;;;14.46;82.08
58785;BME280;44557;51.862;19.378;2022-09-09T03:01:53;98902.70;;;14.44;82.20
58785;BME280;44557;51.862;19.378;2022-09-09T03:02:55;98903.14;;;14.41;82.41
58785;BME280;44557;51.862;19.378;2022-09-09T03:03:57;98901.80;;;14.50;82.11
58785;BME280;44557;51.862;19.378;2022-09-09T03:04:59;98901.97;;;14.42;82.19
58785;BME280;44557;51.862;19.378;2022-09-09T03:06:01;98902.05;;;14.51;82.15
58785;BME280;44557;51.862;19.378;2022-09-09T03:07:02;98898.96;;;14.62;81.67
58785;BME280;44557;51.862;19.378;2022-09-09T03:08:05;98899.38;;;14.65;81.77
58785;BME280;44557;51.862;19.378;2022-09-09T03:09:06;98899.05;;;14.64;81.92
58785;BME280;44557;51.862;19.378;2022-09-09T03:10:09;98898.39;;;14.71;81.61
58785;BME280;44557;51.862;19.378;2022-09-09T03:11:11;98899.72;;;14.67;81.90
58785;BME280;44557;51.862;19.378;2022-09-09T03:12:14;98900.57;;;14.74;81.54
58785;BME280;44557;51.862;19.378;2022-09-09T03:13:16;98894.89;;;14.69;81.95
58785;BME280;44557;51.862;19.378;2022-09-09T03:14:19;98890.25;;;14.62;82.22
58785;BME280;44557;51.862;19.378;2022-09-09T03:15:22;98891.83;;;14.61;82.12
58785;BME280;44557;51.862;19.378;2022-09-09T03:16:24;98892.75;;;14.67;82.00
58785;BME280;44557;51.862;19.378;2022-09-09T03:17:25;98899.88;;;14.78;81.67
58785;BME280;44557;51.862;19.378;2022-09-09T03:18:29;98899.12;;;14.84;81.26
58785;BME280;44557;51.862;19.378;2022-09-09T03:19:31;98894.19;;;14.80;81.45
58785;BME280;44557;51.862;19.378;2022-09-09T03:20:32;98893.98;;;14.75;81.75
58785;BME280;44557;51.862;19.378;2022-09-09T03:21:34;98893.95;;;14.68;82.25
58785;BME280;44557;51.862;19.378;2022-09-09T03:22:36;98894.17;;;14.68;82.39
58785;BME280;44557;51.862;19.378;2022-09-09T03:23:38;98892.05;;;14.69;82.24
58785;BME280;44557;51.862;19.378;2022-09-09T03:24:39;98893.02;;;14.71;82.26
58785;BME280;44557;51.862;19.378;2022-09-09T03:25:48;98892.23;;;14.73;81.94
58785;BME280;44557;51.862;19.378;2022-09-09T03:26:51;98896.15;;;14.67;82.11
58785;BME280;44557;51.862;19.378;2022-09-09T03:27:53;98895.52;;;14.77;81.76
58785;BME280;44557;51.862;19.378;2022-09-09T03:28:56;98896.75;;;14.74;82.12
58785;BME280;44557;51.862;19.378;2022-09-09T03:29:58;98893.03;;;14.74;82.38
58785;BME280;44557;51.862;19.378;2022-09-09T03:31:00;98897.61;;;14.84;81.74
58785;BME280;44557;51.862;19.378;2022-09-09T03:32:02;98897.36;;;14.83;81.71
58785;BME280;44557;51.862;19.378;2022-09-09T03:33:04;98899.88;;;14.91;81.47
58785;BME280;44557;51.862;19.378;2022-09-09T03:34:06;98899.48;;;14.80;81.73
58785;BME280;44557;51.862;19.378;2022-09-09T03:35:08;98902.77;;;14.84;81.55
58785;BME280;44557;51.862;19.378;2022-09-09T03:36:10;98902.78;;;14.86;81.54
58785;BME280;44557;51.862;19.378;2022-09-09T03:37:11;98902.21;;;14.84;81.72
58785;BME280;44557;51.862;19.378;2022-09-09T03:38:13;98905.63;;;14.84;81.66
58785;BME280;44557;51.862;19.378;2022-09-09T03:39:15;98904.38;;;14.88;81.68
58785;BME280;44557;51.862;19.378;2022-09-09T03:40:16;98903.95;;;14.83;81.54
58785;BME280;44557;51.862;19.378;2022-09-09T03:41:19;98902.85;;;14.84;81.40
58785;BME280;44557;51.862;19.378;2022-09-09T03:42:21;98902.91;;;14.80;81.61
58785;BME280;44557;51.862;19.378;2022-09-09T03:43:24;98902.55;;;14.87;81.36
58785;BME280;44557;51.862;19.378;2022-09-09T03:44:27;98902.87;;;14.87;81.23
58785;BME280;44557;51.862;19.378;2022-09-09T03:45:28;98901.79;;;14.91;81.33
58785;BME280;44557;51.862;19.378;2022-09-09T03:46:31;98904.21;;;14.87;81.47
58785;BME280;44557;51.862;19.378;2022-09-09T03:47:33;98903.52;;;14.89;81.35
58785;BME280;44557;51.862;19.378;2022-09-09T03:48:34;98906.44;;;14.76;82.03
58785;BME280;44557;51.862;19.378;2022-09-09T03:49:36;98906.30;;;14.79;81.76
58785;BME280;44557;51.862;19.378;2022-09-09T03:50:37;98909.35;;;14.85;81.77
58785;BME280;44557;51.862;19.378;2022-09-09T03:51:39;98910.58;;;14.80;81.86
58785;BME280;44557;51.862;19.378;2022-09-09T03:52:41;98905.82;;;14.78;81.85
58785;BME280;44557;51.862;19.378;2022-09-09T03:53:43;98911.09;;;14.72;82.17
58785;BME280;44557;51.862;19.378;2022-09-09T03:54:45;98910.77;;;14.72;82.39
58785;BME280;44557;51.862;19.378;2022-09-09T03:55:48;98911.85;;;14.69;82.58
58785;BME280;44557;51.862;19.378;2022-09-09T03:56:50;98910.23;;;14.73;82.25
58785;BME280;44557;51.862;19.378;2022-09-09T03:57:51;98910.22;;;14.63;82.63
58785;BME280;44557;51.862;19.378;2022-09-09T03:58:53;98912.36;;;14.64;82.65
58785;BME280;44557;51.862;19.378;2022-09-09T03:59:54;98912.45;;;14.65;82.78
58785;BME280;44557;51.862;19.378;2022-09-09T04:00:57;98910.16;;;14.65;82.93
58785;BME280;44557;51.862;19.378;2022-09-09T04:01:59;98912.80;;;14.59;83.04
58785;BME280;44557;51.862;19.378;2022-09-09T04:03:01;98916.25;;;14.64;82.94
58785;BME280;44557;51.862;19.378;2022-09-09T04:04:03;98916.61;;;14.62;83.10
58785;BME280;44557;51.862;19.378;2022-09-09T04:05:05;98915.33;;;14.67;82.83
58785;BME280;44557;51.862;19.378;2022-09-09T04:06:09;98915.42;;;14.60;83.26
58785;BME280;44557;51.862;19.378;2022-09-09T04:07:13;98913.77;;;14.60;83.41
58785;BME280;44557;51.862;19.378;2022-09-09T04:08:15;98920.41;;;14.61;83.28
58785;BME280;44557;51.862;19.378;2022-09-09T04:09:17;98919.08;;;14.63;83.33
58785;BME280;44557;51.862;19.378;2022-09-09T04:10:19;98921.80;;;14.64;83.36
58785;BME280;44557;51.862;19.378;2022-09-09T04:11:22;98917.10;;;14.62;83.39
58785;BME280;44557;51.862;19.378;2022-09-09T04:12:24;98919.92;;;14.58;83.83
58785;BME280;44557;51.862;19.378;2022-09-09T04:13:25;98919.85;;;14.59;83.86
58785;BME280;44557;51.862;19.378;2022-09-09T04:14:27;98915.52;;;14.54;84.12
58785;BME280;44557;51.862;19.378;2022-09-09T04:15:30;98921.27;;;14.58;83.80
58785;BME280;44557;51.862;19.378;2022-09-09T04:16:33;98920.50;;;14.51;84.26
58785;BME280;44557;51.862;19.378;2022-09-09T04:17:35;98919.05;;;14.58;84.25
58785;BME280;44557;51.862;19.378;2022-09-09T04:18:37;98921.98;;;14.58;84.16
58785;BME280;44557;51.862;19.378;2022-09-09T04:19:39;98923.98;;;14.61;84.24
58785;BME280;44557;51.862;19.378;2022-09-09T04:20:41;98922.65;;;14.71;83.58
58785;BME280;44557;51.862;19.378;2022-09-09T04:21:44;98925.98;;;14.63;83.95
58785;BME280;44557;51.862;19.378;2022-09-09T04:22:46;98925.75;;;14.64;84.19
58785;BME280;44557;51.862;19.378;2022-09-09T04:23:48;98925.45;;;14.65;84.11
58785;BME280;44557;51.862;19.378;2022-09-09T04:24:49;98925.31;;;14.69;83.83
58785;BME280;44557;51.862;19.378;2022-09-09T04:25:53;98924.42;;;14.76;83.83
58785;BME280;44557;51.862;19.378;2022-09-09T04:26:54;98925.78;;;14.78;83.67
58785;BME280;44557;51.862;19.378;2022-09-09T04:27:57;98922.64;;;14.83;83.47
58785;BME280;44557;51.862;19.378;2022-09-09T04:28:59;98924.05;;;14.91;83.23
58785;BME280;44557;51.862;19.378;2022-09-09T04:30:00;98923.84;;;14.95;83.03
58785;BME280;44557;51.862;19.378;2022-09-09T04:31:14;98924.75;;;14.90;83.36
58785;BME280;44557;51.862;19.378;2022-09-09T04:32:16;98922.66;;;14.85;83.54
58785;BME280;44557;51.862;19.378;2022-09-09T04:33:19;98925.70;;;14.89;83.49
58785;BME280;44557;51.862;19.378;2022-09-09T04:34:20;98927.45;;;14.90;83.33
58785;BME280;44557;51.862;19.378;2022-09-09T04:35:22;98926.42;;;14.90;83.66
58785;BME280;44557;51.862;19.378;2022-09-09T04:36:24;98925.66;;;14.94;83.44
58785;BME280;44557;51.862;19.378;2022-09-09T04:37:25;98926.55;;;14.98;83.25
58785;BME280;44557;51.862;19.378;2022-09-09T04:38:27;98928.81;;;14.92;83.67
58785;BME280;44557;51.862;19.378;2022-09-09T04:39:28;98930.98;;;14.94;83.45
58785;BME280;44557;51.862;19.378;2022-09-09T04:40:31;98934.01;;;14.97;83.46
58785;BME280;44557;51.862;19.378;2022-09-09T04:41:32;98934.51;;;15.01;83.25
58785;BME280;44557;51.862;19.378;2022-09-09T04:42:35;98934.85;;;14.94;83.73
58785;BME280;44557;51.862;19.378;2022-09-09T04:43:38;98934.40;;;14.97;83.62
58785;BME280;44557;51.862;19.378;2022-09-09T04:44:40;98936.26;;;15.01;83.55
58785;BME280;44557;51.862;19.378;2022-09-09T04:45:42;98930.77;;;14.98;83.67
58785;BME280;44557;51.862;19.378;2022-09-09T04:46:44;98931.79;;;14.97;83.69
58785;BME280;44557;51.862;19.378;2022-09-09T04:47:46;98932.48;;;14.95;83.74
58785;BME280;44557;51.862;19.378;2022-09-09T04:48:49;98937.77;;;15.01;83.79
58785;BME280;44557;51.862;19.378;2022-09-09T04:49:50;98938.23;;;15.03;83.68
58785;BME280;44557;51.862;19.378;2022-09-09T04:51:01;98940.30;;;15.01;83.77
58785;BME280;44557;51.862;19.378;2022-09-09T04:52:04;98935.45;;;15.00;83.85
58785;BME280;44557;51.862;19.378;2022-09-09T04:53:05;98937.65;;;14.96;83.96
58785;BME280;44557;51.862;19.378;2022-09-09T04:54:07;98938.12;;;14.96;83.84
58785;BME280;44557;51.862;19.378;2022-09-09T04:55:09;98936.20;;;14.94;84.05
58785;BME280;44557;51.862;19.378;2022-09-09T04:56:13;98936.55;;;14.89;84.33
58785;BME280;44557;51.862;19.378;2022-09-09T04:57:15;98935.41;;;14.85;84.77
58785;BME280;44557;51.862;19.378;2022-09-09T04:58:17;98940.40;;;14.84;84.63
58785;BME280;44557;51.862;19.378;2022-09-09T04:59:20;98937.50;;;14.88;84.71
58785;BME280;44557;51.862;19.378;2022-09-09T05:00:21;98939.81;;;14.90;84.51
58785;BME280;44557;51.862;19.378;2022-09-09T05:01:25;98941.20;;;14.93;84.39
58785;BME280;44557;51.862;19.378;2022-09-09T05:02:29;98940.60;;;14.89;84.82
58785;BME280;44557;51.862;19.378;2022-09-09T05:03:31;98943.58;;;14.93;84.65
58785;BME280;44557;51.862;19.378;2022-09-09T05:04:33;98942.55;;;14.95;84.58
58785;BME280;44557;51.862;19.378;2022-09-09T05:05:35;98942.48;;;14.96;84.55
58785;BME280;44557;51.862;19.378;2022-09-09T05:06:37;98942.23;;;15.07;84.11
58785;BME280;44557;51.862;19.378;2022-09-09T05:07:39;98945.84;;;15.12;84.09
58785;BME280;44557;51.862;19.378;2022-09-09T05:08:42;98942.21;;;15.16;84.04
58785;BME280;44557;51.862;19.378;2022-09-09T05:09:44;98943.31;;;15.25;83.56
58785;BME280;44557;51.862;19.378;2022-09-09T05:10:46;98941.25;;;15.24;83.71
58785;BME280;44557;51.862;19.378;2022-09-09T05:11:48;98940.48;;;15.27;83.41
58785;BME280;44557;51.862;19.378;2022-09-09T05:12:53;98943.67;;;15.22;84.03
58785;BME280;44557;51.862;19.378;2022-09-09T05:13:55;98944.23;;;15.21;84.16
58785;BME280;44557;51.862;19.378;2022-09-09T05:15:01;98944.16;;;15.11;84.68
58785;BME280;44557;51.862;19.378;2022-09-09T05:16:02;98945.38;;;15.15;84.78
58785;BME280;44557;51.862;19.378;2022-09-09T05:17:04;98947.64;;;15.20;84.62
58785;BME280;44557;51.862;19.378;2022-09-09T05:18:07;98944.84;;;15.29;84.06
58785;BME280;44557;51.862;19.378;2022-09-09T05:19:09;98947.35;;;15.25;84.41
58785;BME280;44557;51.862;19.378;2022-09-09T05:20:10;98947.32;;;15.20;84.88
58785;BME280;44557;51.862;19.378;2022-09-09T05:21:13;98949.11;;;15.16;84.97
58785;BME280;44557;51.862;19.378;2022-09-09T05:22:19;98945.48;;;15.19;85.09
58785;BME280;44557;51.862;19.378;2022-09-09T05:23:21;98946.77;;;15.23;85.03
58785;BME280;44557;51.862;19.378;2022-09-09T05:24:24;98947.89;;;15.22;85.30
58785;BME280;44557;51.862;19.378;2022-09-09T05:25:25;98949.36;;;15.30;84.89
58785;BME280;44557;51.862;19.378;2022-09-09T05:26:27;98948.98;;;15.33;84.91
58785;BME280;44557;51.862;19.378;2022-09-09T05:27:30;98949.20;;;15.29;85.50
58785;BME280;44557;51.862;19.378;2022-09-09T05:28:34;98951.41;;;15.30;85.59
58785;BME280;44557;51.862;19.378;2022-09-09T05:29:36;98946.94;;;15.34;85.06
58785;BME280;44557;51.862;19.378;2022-09-09T05:30:38;98949.41;;;15.37;85.18
58785;BME280;44557;51.862;19.378;2022-09-09T05:31:40;98948.14;;;15.37;85.53
58785;BME280;44557;51.862;19.378;2022-09-09T05:32:42;98951.69;;;15.43;85.04
58785;BME280;44557;51.862;19.378;2022-09-09T05:33:46;98955.11;;;15.48;85.04
58785;BME280;44557;51.862;19.378;2022-09-09T05:34:48;98951.31;;;15.49;85.21
58785;BME280;44557;51.862;19.378;2022-09-09T05:36:02;98952.19;;;15.49;85.34
58785;BME280;44557;51.862;19.378;2022-09-09T05:37:05;98953.15;;;15.51;85.43
58785;BME280;44557;51.862;19.378;2022-09-09T05:38:07;98956.73;;;15.54;85.39
58785;BME280;44557;51.862;19.378;2022-09-09T05:39:09;98957.52;;;15.53;85.58
58785;BME280;44557;51.862;19.378;2022-09-09T05:40:13;98961.36;;;15.56;85.29
58785;BME280;44557;51.862;19.378;2022-09-09T05:41:16;98961.62;;;15.63;85.21
58785;BME280;44557;51.862;19.378;2022-09-09T05:42:18;98965.27;;;15.62;85.40
58785;BME280;44557;51.862;19.378;2022-09-09T05:43:20;98964.77;;;15.61;85.54
58785;BME280;44557;51.862;19.378;2022-09-09T05:44:21;98965.23;;;15.58;85.69
58785;BME280;44557;51.862;19.378;2022-09-09T05:45:25;98965.09;;;15.60;85.79
58785;BME280;44557;51.862;19.378;2022-09-09T05:46:26;98961.80;;;15.51;86.63
58785;BME280;44557;51.862;19.378;2022-09-09T05:47:28;98964.77;;;15.57;86.17
58785;BME280;44557;51.862;19.378;2022-09-09T05:48:35;98964.30;;;15.60;86.22
58785;BME280;44557;51.862;19.378;2022-09-09T05:49:37;98966.52;;;15.61;85.97
58785;BME280;44557;51.862;19.378;2022-09-09T05:50:38;98970.44;;;15.64;86.12
58785;BME280;44557;51.862;19.378;2022-09-09T05:51:40;98969.48;;;15.64;86.18
58785;BME280;44557;51.862;19.378;2022-09-09T05:52:41;98968.98;;;15.60;86.35
58785;BME280;44557;51.862;19.378;2022-09-09T05:53:44;98967.02;;;15.62;86.52
58785;BME280;44557;51.862;19.378;2022-09-09T05:54:46;98969.41;;;15.68;86.55
58785;BME280;44557;51.862;19.378;2022-09-09T05:55:48;98967.05;;;15.71;86.23
58785;BME280;44557;51.862;19.378;2022-09-09T05:56:50;98969.83;;;15.71;86.34
58785;BME280;44557;51.862;19.378;2022-09-09T05:57:53;98966.43;;;15.74;86.15
58785;BME280;44557;51.862;19.378;2022-09-09T05:58:56;98969.54;;;15.76;86.25
58785;BME280;44557;51.862;19.378;2022-09-09T05:59:57;98965.97;;;15.78;85.96
58785;BME280;44557;51.862;19.378;2022-09-09T06:01:10;98971.76;;;15.74;86.34
58785;BME280;44557;51.862;19.378;2022-09-09T06:02:12;98967.80;;;15.81;85.85
58785;BME280;44557;51.862;19.378;2022-09-09T06:03:15;98976.54;;;15.80;86.02
58785;BME280;44557;51.862;19.378;2022-09-09T06:04:18;98976.70;;;15.82;85.91
58785;BME280;44557;51.862;19.378;2022-09-09T06:05:21;98978.23;;;15.84;85.77
58785;BME280;44557;51.862;19.378;2022-09-09T06:06:27;98980.20;;;15.83;86.09
58785;BME280;44557;51.862;19.378;2022-09-09T06:07:30;98981.31;;;15.83;86.09
58785;BME280;44557;51.862;19.378;2022-09-09T06:08:37;98981.17;;;15.87;86.09
58785;BME280;44557;51.862;19.378;2022-09-09T06:09:39;98979.02;;;15.82;86.46
58785;BME280;44557;51.862;19.378;2022-09-09T06:10:41;98978.15;;;15.83;86.51
58785;BME280;44557;51.862;19.378;2022-09-09T06:11:43;98977.64;;;15.97;85.67
58785;BME280;44557;51.862;19.378;2022-09-09T06:12:44;98977.09;;;15.98;85.63
58785;BME280;44557;51.862;19.378;2022-09-09T06:13:46;98977.21;;;15.90;86.11
58785;BME280;44557;51.862;19.378;2022-09-09T06:14:48;98980.38;;;15.88;86.32
58785;BME280;44557;51.862;19.378;2022-09-09T06:15:52;98986.97;;;15.89;86.22
58785;BME280;44557;51.862;19.378;2022-09-09T06:16:53;98986.68;;;15.93;86.22